Time;durP1;ratioP1;P1;durP2;ratioP2;P2;SDS_P1;SDS_P2;PMS_P1;PMS_P2;Temp;Humidity;BMP_temperature;BMP_pressure;BME280_temperature;BME280_humidity;BME280_pressure;Samples;Min_cycle;Max_cycle;Signal;HPM_P1;HPM_P2
2024/02/29 00:00:59;;;;;;;4.33;3.23;;;17.10;56.90;;;;;;5094083;28;20501;-90
2024/02/29 00:03:26;;;;;;;3.50;2.80;;;17.10;56.90;;;;;;5094092;28;20435;-81
2024/02/29 00:05:53;;;;;;;4.60;2.70;;;17.10;56.90;;;;;;5093949;28;20948;-91
2024/02/29 00:08:20;;;;;;;3.13;2.80;;;17.10;57.50;;;;;;5094255;28;20930;-82
2024/02/29 00:10:48;;;;;;;3.20;2.70;;;17.10;56.90;;;;;;5093896;28;20441;-90
2024/02/29 00:13:15;;;;;;;3.47;2.70;;;17.10;56.90;;;;;;5093725;28;20427;-91
2024/02/29 00:15:42;;;;;;;3.10;2.60;;;17.10;56.90;;;;;;5093987;28;20526;-81
2024/02/29 00:18:09;;;;;;;2.93;2.27;;;17.10;56.90;;;;;;5093902;28;20454;-89
2024/02/29 00:20:36;;;;;;;2.80;2.33;;;17.10;56.90;;;;;;5092890;28;20491;-86
2024/02/29 00:23:03;;;;;;;2.87;2.53;;;17.10;56.90;;;;;;5093190;28;20442;-81
2024/02/29 00:25:30;;;;;;;2.90;2.60;;;17.10;56.90;;;;;;5093265;28;20832;-80
2024/02/29 00:27:59;;;;;;;2.97;2.60;;;17.10;57.00;;;;;;5093363;28;20452;-81
2024/02/29 00:30:26;;;;;;;2.60;2.40;;;17.10;56.90;;;;;;5096230;28;20555;-86
2024/02/29 00:32:55;;;;;;;3.13;2.60;;;17.10;56.90;;;;;;5097336;28;20439;-84
2024/02/29 00:35:22;;;;;;;2.80;2.30;;;17.10;56.90;;;;;;5097323;28;20508;-89
2024/02/29 00:37:49;;;;;;;3.63;2.80;;;17.10;56.90;;;;;;5097155;28;20435;-81
2024/02/29 00:40:16;;;;;;;3.03;2.73;;;17.10;56.90;;;;;;5096836;28;20577;-81
2024/02/29 00:42:43;;;;;;;3.27;2.63;;;17.10;56.90;;;;;;5097350;28;20444;-91
2024/02/29 00:45:11;;;;;;;3.10;2.70;;;17.00;56.80;;;;;;5097162;28;20526;-88
2024/02/29 00:47:38;;;;;;;3.07;2.60;;;17.10;56.90;;;;;;5096878;28;20510;-90
2024/02/29 00:50:07;;;;;;;3.53;2.73;;;17.10;56.90;;;;;;5097067;28;20446;-87
2024/02/29 00:52:33;;;;;;;3.53;2.93;;;17.10;56.90;;;;;;5096626;28;20439;-89
2024/02/29 00:55:03;;;;;;;3.20;2.90;;;17.10;56.90;;;;;;5097078;28;20439;-88
2024/02/29 00:57:29;;;;;;;2.73;2.30;;;17.10;56.90;;;;;;5096685;28;20797;-89
2024/02/29 00:59:56;;;;;;;3.20;2.30;;;17.10;56.90;;;;;;5096732;28;20442;-89
2024/02/29 01:02:24;;;;;;;3.10;2.57;;;17.00;56.80;;;;;;5097176;28;20435;-86
2024/02/29 01:04:51;;;;;;;3.07;2.50;;;17.00;56.80;;;;;;5096969;28;20852;-90
2024/02/29 01:07:18;;;;;;;3.37;3.00;;;17.10;56.90;;;;;;5096680;28;20451;-83
2024/02/29 01:09:45;;;;;;;3.30;2.60;;;17.00;56.80;;;;;;5096636;28;20442;-88
2024/02/29 01:12:12;;;;;;;3.70;2.90;;;17.00;56.80;;;;;;5096650;28;20918;-92
2024/02/29 01:14:38;;;;;;;3.53;2.70;;;17.00;56.80;;;;;;5096120;28;20522;-81
2024/02/29 01:17:05;;;;;;;2.90;2.60;;;17.00;56.80;;;;;;5096161;28;20922;-81
2024/02/29 01:19:34;;;;;;;3.33;2.30;;;17.00;56.80;;;;;;5096263;28;20438;-90
2024/02/29 01:22:02;;;;;;;3.00;2.53;;;17.00;57.40;;;;;;5096530;28;20570;-88
2024/02/29 01:24:28;;;;;;;3.03;2.73;;;17.00;56.80;;;;;;5097074;28;20501;-81
2024/02/29 01:26:55;;;;;;;3.20;2.83;;;17.00;56.80;;;;;;5096142;28;20523;-91
2024/02/29 01:29:22;;;;;;;2.67;2.47;;;17.00;56.80;;;;;;5096233;28;20451;-90
2024/02/29 01:31:49;;;;;;;2.93;2.60;;;17.10;56.90;;;;;;5096216;28;20467;-89
2024/02/29 01:34:17;;;;;;;3.60;2.53;;;17.00;56.80;;;;;;5096505;28;20424;-82
2024/02/29 01:36:45;;;;;;;3.77;3.03;;;17.00;56.80;;;;;;5096450;28;20434;-81
2024/02/29 01:39:12;;;;;;;3.10;2.20;;;17.00;56.80;;;;;;5096309;28;20522;-91
2024/02/29 01:41:39;;;;;;;2.80;2.50;;;17.00;56.80;;;;;;5095999;28;20479;-91
2024/02/29 01:44:06;;;;;;;3.20;2.77;;;17.00;56.80;;;;;;5099572;28;20479;-80
2024/02/29 01:46:33;;;;;;;2.90;2.30;;;17.00;56.80;;;;;;5106621;28;20511;-81
2024/02/29 01:49:02;;;;;;;3.00;2.67;;;17.00;56.80;;;;;;5113027;28;20420;-80
2024/02/29 01:51:29;;;;;;;3.47;2.47;;;17.00;56.80;;;;;;5099954;28;20407;-81
2024/02/29 01:53:58;;;;;;;2.47;2.17;;;17.00;56.80;;;;;;5101785;28;21021;-80
2024/02/29 01:56:26;;;;;;;2.70;2.20;;;17.00;56.80;;;;;;5095631;28;21020;-89
2024/02/29 01:58:56;;;;;;;3.03;2.40;;;17.00;56.80;;;;;;5095821;28;20456;-80
2024/02/29 02:01:23;;;;;;;2.40;2.13;;;17.00;56.80;;;;;;5095483;28;20837;-90
2024/02/29 02:03:50;;;;;;;3.03;2.60;;;17.00;56.70;;;;;;5095440;28;20872;-84
2024/02/29 02:06:19;;;;;;;2.70;2.50;;;17.00;56.70;;;;;;5095455;28;20440;-80
2024/02/29 02:08:46;;;;;;;3.37;2.50;;;17.00;56.80;;;;;;5095331;28;20467;-90
2024/02/29 02:11:14;;;;;;;2.83;2.50;;;17.00;56.70;;;;;;5095176;28;20791;-90
2024/02/29 02:13:41;;;;;;;2.50;2.03;;;17.00;56.70;;;;;;5095542;28;20977;-91
2024/02/29 02:16:09;;;;;;;3.40;2.70;;;17.00;56.70;;;;;;5095688;28;20523;-80
2024/02/29 02:18:36;;;;;;;2.83;2.53;;;17.00;56.70;;;;;;5095637;28;20515;-80
2024/02/29 02:21:05;;;;;;;2.97;2.47;;;17.00;56.70;;;;;;5105974;28;20515;-80
2024/02/29 02:23:32;;;;;;;3.07;2.17;;;17.00;56.70;;;;;;5101863;28;20444;-80
2024/02/29 02:26:00;;;;;;;2.80;2.40;;;17.00;56.70;;;;;;5094720;28;20522;-80
2024/02/29 02:28:28;;;;;;;2.13;1.93;;;17.00;56.70;;;;;;5094489;28;20490;-80
2024/02/29 02:30:54;;;;;;;2.50;2.10;;;17.00;56.70;;;;;;5094646;28;20467;-89
2024/02/29 02:33:21;;;;;;;2.53;2.23;;;17.00;56.70;;;;;;5095241;28;20526;-90
2024/02/29 02:35:48;;;;;;;2.40;2.00;;;17.00;56.70;;;;;;5094914;28;20432;-84
2024/02/29 02:38:16;;;;;;;3.37;2.60;;;17.00;56.70;;;;;;5094479;28;20428;-79
2024/02/29 02:40:43;;;;;;;2.80;2.40;;;17.00;56.70;;;;;;5094765;28;20999;-80
2024/02/29 02:43:10;;;;;;;2.57;2.17;;;16.90;56.60;;;;;;5094588;28;20436;-79
2024/02/29 02:45:37;;;;;;;3.07;2.50;;;16.90;56.60;;;;;;5094832;28;20518;-90
2024/02/29 02:48:04;;;;;;;2.57;2.20;;;17.00;56.70;;;;;;5094734;28;20535;-91
2024/02/29 02:50:31;;;;;;;2.83;2.33;;;17.00;56.70;;;;;;5094712;28;20474;-91
2024/02/29 02:52:57;;;;;;;2.60;2.40;;;16.90;56.60;;;;;;5094114;28;20432;-84
2024/02/29 02:55:26;;;;;;;3.83;2.47;;;17.00;56.70;;;;;;5094585;28;20432;-91
2024/02/29 02:57:52;;;;;;;2.60;2.03;;;16.90;56.60;;;;;;5094706;28;20803;-81
2024/02/29 03:00:19;;;;;;;2.47;2.27;;;16.90;56.60;;;;;;5094324;28;20435;-81
2024/02/29 03:02:46;;;;;;;2.93;2.20;;;17.00;56.70;;;;;;5094757;28;20530;-81
2024/02/29 03:05:13;;;;;;;2.80;2.20;;;16.90;56.60;;;;;;5094213;28;20442;-82
2024/02/29 03:07:40;;;;;;;3.33;2.70;;;16.90;56.60;;;;;;5094564;28;20437;-85
2024/02/29 03:10:08;;;;;;;3.13;2.30;;;16.90;56.60;;;;;;5094349;28;20534;-81
2024/02/29 03:12:37;;;;;;;2.77;2.20;;;16.90;56.60;;;;;;5094007;28;20435;-81
2024/02/29 03:15:05;;;;;;;2.30;2.00;;;16.90;56.60;;;;;;5093997;28;20432;-81
2024/02/29 03:17:32;;;;;;;2.20;2.00;;;16.90;56.60;;;;;;5093908;28;20440;-83
2024/02/29 03:19:58;;;;;;;2.57;2.33;;;16.90;56.60;;;;;;5093911;28;20540;-80
2024/02/29 03:22:25;;;;;;;3.40;2.50;;;16.90;56.60;;;;;;5093689;28;20487;-80
2024/02/29 03:24:52;;;;;;;2.70;2.27;;;16.90;56.60;;;;;;5093681;28;20436;-80
2024/02/29 03:27:19;;;;;;;3.47;2.10;;;16.90;56.60;;;;;;5093834;28;20439;-80
2024/02/29 03:29:47;;;;;;;2.87;2.40;;;16.90;56.60;;;;;;5093954;28;20446;-81
2024/02/29 03:32:14;;;;;;;2.97;2.67;;;17.00;56.60;;;;;;5093623;28;20440;-80
2024/02/29 03:34:41;;;;;;;2.57;2.37;;;16.90;56.60;;;;;;5093355;28;20434;-81
2024/02/29 03:37:08;;;;;;;2.30;2.10;;;16.90;56.60;;;;;;5093715;28;20427;-87
2024/02/29 03:39:34;;;;;;;2.93;2.60;;;16.90;56.60;;;;;;5093596;28;20861;-81
2024/02/29 03:42:01;;;;;;;4.03;3.27;;;16.90;56.60;;;;;;5093351;28;20487;-86
2024/02/29 03:44:28;;;;;;;3.27;2.53;;;16.90;56.60;;;;;;5093325;28;20534;-80
2024/02/29 03:46:56;;;;;;;2.50;2.20;;;16.90;56.60;;;;;;5093480;28;20469;-81
2024/02/29 03:49:23;;;;;;;2.43;2.00;;;16.90;56.60;;;;;;5093390;28;20933;-80
2024/02/29 03:51:50;;;;;;;3.13;2.83;;;16.90;56.60;;;;;;5093810;28;20945;-85
2024/02/29 03:54:17;;;;;;;2.70;2.10;;;16.90;56.50;;;;;;5094077;28;20546;-91
2024/02/29 03:56:44;;;;;;;2.00;1.67;;;16.90;56.60;;;;;;5093695;28;20435;-81
2024/02/29 03:59:11;;;;;;;2.43;1.97;;;16.90;56.60;;;;;;5093170;28;20542;-81
2024/02/29 04:01:38;;;;;;;3.13;2.40;;;16.90;56.50;;;;;;5093341;28;20480;-81
2024/02/29 04:04:06;;;;;;;2.43;1.93;;;16.90;57.10;;;;;;5094503;28;20446;-81
2024/02/29 04:06:33;;;;;;;2.90;2.10;;;16.90;56.50;;;;;;5097145;28;20435;-88
2024/02/29 04:09:00;;;;;;;2.80;2.30;;;16.90;56.50;;;;;;5097139;28;20443;-80
2024/02/29 04:11:26;;;;;;;2.67;2.30;;;16.90;56.50;;;;;;5097019;28;20450;-80
2024/02/29 04:13:54;;;;;;;2.27;2.00;;;16.90;56.50;;;;;;5097261;28;20514;-80
2024/02/29 04:16:22;;;;;;;2.10;1.80;;;16.90;57.10;;;;;;5097286;28;20857;-81
2024/02/29 04:18:48;;;;;;;2.57;2.00;;;16.90;56.50;;;;;;5095869;28;20428;-82
2024/02/29 04:21:17;;;;;;;3.13;2.20;;;16.90;56.50;;;;;;5096970;28;20479;-80
2024/02/29 04:23:43;;;;;;;2.70;2.30;;;16.90;56.50;;;;;;5096855;28;20435;-80
2024/02/29 04:26:10;;;;;;;2.90;2.10;;;16.90;56.50;;;;;;5096752;28;20530;-81
2024/02/29 04:28:37;;;;;;;2.83;2.30;;;16.90;56.50;;;;;;5096677;28;20970;-82
2024/02/29 04:31:05;;;;;;;2.87;2.00;;;16.90;56.50;;;;;;5096372;28;20554;-80
2024/02/29 04:33:32;;;;;;;2.50;2.23;;;16.90;56.50;;;;;;5096904;28;20463;-80
2024/02/29 04:35:59;;;;;;;3.00;2.60;;;16.90;56.50;;;;;;5096653;28;20441;-80
2024/02/29 04:38:27;;;;;;;2.70;2.10;;;16.90;56.50;;;;;;5096749;28;20448;-81
2024/02/29 04:40:54;;;;;;;3.17;2.30;;;16.90;56.40;;;;;;5096535;28;20531;-80
2024/02/29 04:43:21;;;;;;;2.37;2.10;;;16.90;56.50;;;;;;5096515;28;20949;-81
2024/02/29 04:45:48;;;;;;;2.80;2.00;;;16.90;56.50;;;;;;5096610;28;20439;-80
2024/02/29 04:48:15;;;;;;;3.03;2.47;;;16.90;56.40;;;;;;5096632;28;20918;-84
2024/02/29 04:50:42;;;;;;;2.40;2.13;;;16.90;56.40;;;;;;5096474;28;20440;-80
2024/02/29 04:53:09;;;;;;;2.93;2.07;;;16.90;56.40;;;;;;5096339;28;20862;-80
2024/02/29 04:55:37;;;;;;;2.40;1.90;;;16.90;56.40;;;;;;5096198;28;20441;-80
2024/02/29 04:58:04;;;;;;;2.67;2.23;;;16.90;56.50;;;;;;5096243;28;20459;-80
2024/02/29 05:00:31;;;;;;;2.50;1.90;;;16.90;56.40;;;;;;5096332;28;20432;-80
2024/02/29 05:02:58;;;;;;;2.80;2.10;;;16.90;56.40;;;;;;5096147;28;20811;-80
2024/02/29 05:05:24;;;;;;;2.50;2.00;;;16.90;56.40;;;;;;5096110;28;20436;-80
2024/02/29 05:07:51;;;;;;;3.73;2.73;;;16.90;56.40;;;;;;5100094;28;20428;-81
2024/02/29 05:10:18;;;;;;;2.87;2.40;;;16.90;56.40;;;;;;5101094;28;20571;-80
2024/02/29 05:12:50;;;;;;;2.87;2.13;;;16.80;56.30;;;;;;5097331;28;20436;-81
2024/02/29 05:15:19;;;;;;;2.53;1.97;;;16.90;56.40;;;;;;5095590;28;20906;-80
2024/02/29 05:17:45;;;;;;;2.63;2.30;;;16.90;56.40;;;;;;5096015;28;20431;-80
2024/02/29 05:20:12;;;;;;;3.00;2.40;;;16.80;56.30;;;;;;5096128;28;20424;-81
2024/02/29 05:22:39;;;;;;;2.53;1.80;;;16.80;56.30;;;;;;5095920;28;20570;-80
2024/02/29 05:25:08;;;;;;;2.33;2.07;;;16.80;56.30;;;;;;5095725;28;20798;-80
2024/02/29 05:27:34;;;;;;;2.40;2.00;;;16.80;56.30;;;;;;5095800;28;20475;-81
2024/02/29 05:30:03;;;;;;;2.00;1.70;;;16.80;56.30;;;;;;5095545;28;20438;-80
2024/02/29 05:32:30;;;;;;;2.87;1.87;;;16.80;56.30;;;;;;5095740;28;20455;-89
2024/02/29 05:34:57;;;;;;;2.80;2.00;;;16.80;56.30;;;;;;5095566;28;20443;-79
2024/02/29 05:37:24;;;;;;;2.80;2.07;;;16.90;56.40;;;;;;5095764;28;20858;-79
2024/02/29 05:39:50;;;;;;;2.90;2.20;;;16.80;56.30;;;;;;5095337;28;20766;-79
2024/02/29 05:42:17;;;;;;;2.63;2.20;;;16.80;56.30;;;;;;5095311;28;20475;-80
2024/02/29 05:44:44;;;;;;;3.50;2.50;;;16.80;56.30;;;;;;5095485;28;20518;-81
2024/02/29 05:47:12;;;;;;;2.77;1.77;;;16.80;56.90;;;;;;5095438;28;20438;-80
2024/02/29 05:49:39;;;;;;;3.17;2.10;;;16.80;56.30;;;;;;5095442;28;20530;-88
2024/02/29 05:52:07;;;;;;;2.87;2.10;;;16.80;56.30;;;;;;5095364;28;20471;-90
2024/02/29 05:54:33;;;;;;;2.23;1.80;;;16.80;56.30;;;;;;5095204;28;20431;-80
2024/02/29 05:57:00;;;;;;;2.70;2.37;;;16.80;56.90;;;;;;5096601;28;20781;-83
2024/02/29 05:59:27;;;;;;;2.50;2.03;;;16.80;56.30;;;;;;5096520;28;20447;-90
2024/02/29 06:01:54;;;;;;;3.50;2.27;;;16.80;56.30;;;;;;5096665;28;20475;-86
2024/02/29 06:04:22;;;;;;;2.43;1.90;;;16.80;56.30;;;;;;5096423;28;20868;-87
2024/02/29 06:06:49;;;;;;;2.77;2.03;;;16.80;56.30;;;;;;5096712;28;20442;-90
2024/02/29 06:09:16;;;;;;;2.30;1.83;;;16.80;56.30;;;;;;5096238;28;20475;-89
2024/02/29 06:11:43;;;;;;;2.90;2.00;;;16.80;56.30;;;;;;5096117;28;21033;-89
2024/02/29 06:14:10;;;;;;;3.00;2.20;;;16.80;56.30;;;;;;5096445;28;20431;-88
2024/02/29 06:16:37;;;;;;;3.23;2.17;;;16.80;56.30;;;;;;5096247;28;20428;-89
2024/02/29 06:19:04;;;;;;;2.93;2.20;;;16.80;56.30;;;;;;5096326;28;20438;-88
2024/02/29 06:21:32;;;;;;;3.10;2.43;;;16.80;56.30;;;;;;5095830;28;20440;-89
2024/02/29 06:23:59;;;;;;;2.77;1.97;;;16.80;56.20;;;;;;5096429;28;20531;-90
2024/02/29 06:26:26;;;;;;;2.87;1.90;;;16.80;56.20;;;;;;5095328;28;20432;-85
2024/02/29 06:28:52;;;;;;;2.50;1.83;;;16.80;56.20;;;;;;5096038;28;20451;-87
2024/02/29 06:31:19;;;;;;;3.17;2.23;;;16.80;56.20;;;;;;5095907;28;20467;-90
2024/02/29 06:33:46;;;;;;;2.30;1.83;;;16.80;56.20;;;;;;5095943;28;20538;-91
2024/02/29 06:36:13;;;;;;;4.00;2.07;;;16.80;56.20;;;;;;5096297;28;20827;-90
2024/02/29 06:38:41;;;;;;;2.43;2.20;;;16.80;56.20;;;;;;5095712;28;20442;-85
2024/02/29 06:41:09;;;;;;;2.40;1.80;;;16.80;56.20;;;;;;5095340;28;20858;-87
2024/02/29 06:43:36;;;;;;;1.90;1.40;;;16.80;56.20;;;;;;5095559;28;20489;-91
2024/02/29 06:46:05;;;;;;;2.73;2.30;;;16.80;56.20;;;;;;5095567;28;20442;-90
2024/02/29 06:48:31;;;;;;;2.50;1.80;;;16.80;56.20;;;;;;5095549;28;20443;-90
2024/02/29 06:50:58;;;;;;;2.03;1.80;;;16.80;56.20;;;;;;5095070;28;20530;-89
2024/02/29 06:53:25;;;;;;;2.30;1.60;;;16.80;56.20;;;;;;5094739;28;20941;-82
2024/02/29 06:55:53;;;;;;;2.70;2.23;;;16.80;56.20;;;;;;5094994;28;20777;-88
2024/02/29 06:58:21;;;;;;;2.60;2.10;;;16.80;56.70;;;;;;5094813;28;20559;-88
2024/02/29 07:00:48;;;;;;;3.10;2.60;;;16.80;56.20;;;;;;5094816;28;20439;-87
2024/02/29 07:03:15;;;;;;;2.23;1.93;;;16.80;56.20;;;;;;5094207;28;20487;-88
2024/02/29 07:05:42;;;;;;;2.97;2.40;;;16.80;56.20;;;;;;5094589;28;20435;-89
2024/02/29 07:08:10;;;;;;;3.07;1.97;;;16.80;56.10;;;;;;5094651;28;20870;-86
2024/02/29 07:10:37;;;;;;;2.33;1.70;;;16.80;56.10;;;;;;5094756;28;20439;-81
2024/02/29 07:13:05;;;;;;;2.30;1.63;;;16.80;56.10;;;;;;5094650;28;20990;-80
2024/02/29 07:15:32;;;;;;;2.27;1.73;;;16.80;56.20;;;;;;5094539;28;20510;-83
2024/02/29 07:17:59;;;;;;;2.27;2.07;;;16.80;56.10;;;;;;5094604;28;20838;-90
2024/02/29 07:20:26;;;;;;;2.10;1.90;;;16.80;56.10;;;;;;5094875;28;20439;-89
2024/02/29 07:22:53;;;;;;;2.23;1.50;;;16.80;56.10;;;;;;5094200;28;20479;-89
2024/02/29 07:25:19;;;;;;;2.30;1.80;;;16.80;56.70;;;;;;5094557;28;20922;-86
2024/02/29 07:27:48;;;;;;;2.20;1.77;;;16.80;56.10;;;;;;5094345;28;20458;-89
2024/02/29 07:30:16;;;;;;;2.40;1.63;;;16.80;56.10;;;;;;5094514;28;20571;-80
2024/02/29 07:32:43;;;;;;;2.23;1.80;;;16.80;56.10;;;;;;5094571;28;20443;-82
2024/02/29 07:35:11;;;;;;;2.10;1.70;;;16.80;56.10;;;;;;5104519;28;20499;-80
2024/02/29 07:37:39;;;;;;;2.63;2.10;;;16.80;56.10;;;;;;5105478;28;20443;-80
2024/02/29 07:40:07;;;;;;;2.50;1.80;;;16.80;56.10;;;;;;5110053;28;20495;-80
2024/02/29 07:42:34;;;;;;;2.50;1.80;;;16.80;56.10;;;;;;5103826;28;20841;-79
2024/02/29 07:45:02;;;;;;;3.20;1.83;;;16.80;56.10;;;;;;5097644;28;20434;-89
2024/02/29 07:47:30;;;;;;;2.97;2.10;;;16.80;56.10;;;;;;5095552;28;20493;-89
2024/02/29 07:49:57;;;;;;;2.13;1.63;;;16.80;56.10;;;;;;5094798;28;20439;-87
2024/02/29 07:52:24;;;;;;;3.17;1.80;;;16.80;56.10;;;;;;5094630;28;20878;-87
2024/02/29 07:54:51;;;;;;;2.40;1.73;;;16.80;56.10;;;;;;5100898;28;20527;-89
2024/02/29 07:57:19;;;;;;;2.10;1.63;;;16.90;56.20;;;;;;5107910;28;20432;-79
2024/02/29 07:59:45;;;;;;;2.00;1.50;;;16.90;56.20;;;;;;5111107;28;20450;-80
2024/02/29 08:02:12;;;;;;;2.53;1.83;;;16.90;56.20;;;;;;5095448;28;20442;-87
2024/02/29 08:04:40;;;;;;;2.70;1.93;;;16.80;56.10;;;;;;5094083;28;20535;-89
2024/02/29 08:07:07;;;;;;;3.10;1.80;;;16.90;56.20;;;;;;5094486;28;20499;-89
2024/02/29 08:09:34;;;;;;;2.10;1.70;;;16.90;56.20;;;;;;5093874;28;20438;-80
2024/02/29 08:12:01;;;;;;;2.13;1.53;;;16.90;56.20;;;;;;5094136;28;20442;-83
2024/02/29 08:14:28;;;;;;;2.63;1.83;;;16.90;56.20;;;;;;5093650;28;20486;-80
2024/02/29 08:16:55;;;;;;;2.03;1.60;;;16.90;56.20;;;;;;5093690;28;20514;-89
2024/02/29 08:19:23;;;;;;;2.10;1.53;;;17.00;56.00;;;;;;5093448;28;20442;-79
2024/02/29 08:21:51;;;;;;;2.00;1.40;;;17.00;56.00;;;;;;5093498;28;20434;-83
2024/02/29 08:24:18;;;;;;;2.40;1.70;;;17.00;55.90;;;;;;5093610;28;20574;-91
2024/02/29 08:26:45;;;;;;;2.30;1.77;;;17.00;56.60;;;;;;5093444;28;20458;-81
2024/02/29 08:29:13;;;;;;;2.00;1.60;;;17.10;56.20;;;;;;5093459;28;20824;-81
2024/02/29 08:31:41;;;;;;;1.97;1.50;;;17.00;56.10;;;;;;5092704;28;20562;-81
2024/02/29 08:34:08;;;;;;;2.30;1.90;;;17.00;56.20;;;;;;5092942;28;20447;-81
2024/02/29 08:36:35;;;;;;;2.33;1.90;;;17.10;56.30;;;;;;5092944;28;20444;-80
2024/02/29 08:39:04;;;;;;;2.43;1.90;;;17.10;56.20;;;;;;5092853;28;20457;-81
2024/02/29 08:41:30;;;;;;;2.10;1.53;;;17.10;56.20;;;;;;5093029;28;20626;-89
2024/02/29 08:43:57;;;;;;;2.33;1.73;;;17.20;56.30;;;;;;5093073;28;20489;-80
2024/02/29 08:46:24;;;;;;;2.33;1.77;;;17.20;56.20;;;;;;5092975;28;20432;-90
2024/02/29 08:48:51;;;;;;;1.87;1.63;;;17.20;56.20;;;;;;5092781;28;20489;-80
2024/02/29 08:51:18;;;;;;;2.20;2.00;;;17.30;56.20;;;;;;5095791;28;20432;-80
2024/02/29 08:53:45;;;;;;;1.80;1.47;;;17.40;56.20;;;;;;5096233;28;20440;-84
2024/02/29 08:56:13;;;;;;;1.60;1.30;;;17.40;56.10;;;;;;5096238;28;20534;-80
2024/02/29 08:58:40;;;;;;;1.97;1.40;;;17.50;56.00;;;;;;5096115;28;20490;-81
2024/02/29 09:01:07;;;;;;;2.43;1.60;;;17.60;56.00;;;;;;5096233;28;20463;-90
2024/02/29 09:03:34;;;;;;;2.43;1.50;;;17.80;56.10;;;;;;5096361;28;20482;-80
2024/02/29 09:06:01;;;;;;;2.50;1.57;;;17.70;55.90;;;;;;5096267;28;20522;-87
2024/02/29 09:08:28;;;;;;;1.90;1.50;;;17.80;55.90;;;;;;5096118;28;20435;-80
2024/02/29 09:10:56;;;;;;;2.00;1.80;;;17.90;55.80;;;;;;5096267;28;20436;-80
2024/02/29 09:13:24;;;;;;;2.10;1.60;;;18.00;55.90;;;;;;5096257;28;20442;-81
2024/02/29 09:15:51;;;;;;;2.00;1.60;;;18.00;55.80;;;;;;5096021;28;20442;-89
2024/02/29 09:18:17;;;;;;;2.10;1.60;;;18.10;55.70;;;;;;5097288;28;20436;-84
2024/02/29 09:20:44;;;;;;;1.73;1.40;;;18.20;55.70;;;;;;5098622;28;20442;-84
2024/02/29 09:23:11;;;;;;;1.87;1.53;;;18.20;55.60;;;;;;5098037;28;20578;-89
2024/02/29 09:25:38;;;;;;;2.30;1.70;;;18.30;55.60;;;;;;5095848;28;20842;-81
2024/02/29 09:28:05;;;;;;;2.90;1.90;;;18.40;55.60;;;;;;5095972;28;20458;-81
2024/02/29 09:30:33;;;;;;;1.80;1.30;;;18.40;55.50;;;;;;5095911;28;20479;-81
2024/02/29 09:33:00;;;;;;;1.90;1.60;;;18.50;55.50;;;;;;5095709;28;20534;-87
2024/02/29 09:35:27;;;;;;;2.10;1.60;;;18.60;55.50;;;;;;5095698;28;20436;-80
2024/02/29 09:37:54;;;;;;;1.97;1.37;;;18.60;55.40;;;;;;5095621;28;20439;-80
2024/02/29 09:40:21;;;;;;;2.30;1.70;;;18.60;55.50;;;;;;5095622;28;20450;-80
2024/02/29 09:42:48;;;;;;;1.90;1.40;;;18.60;55.50;;;;;;5095342;28;20459;-81
2024/02/29 09:45:16;;;;;;;2.67;1.70;;;18.50;55.60;;;;;;5095325;28;20443;-80
2024/02/29 09:47:44;;;;;;;1.90;1.60;;;18.50;55.80;;;;;;5095159;28;20534;-80
2024/02/29 09:50:12;;;;;;;1.70;1.30;;;18.50;55.90;;;;;;5095341;28;20436;-82
2024/02/29 09:52:39;;;;;;;1.80;1.17;;;18.50;56.00;;;;;;5095530;28;20476;-89
2024/02/29 09:55:12;;;;;;;1.80;1.43;;;18.50;56.10;;;;;;5095054;28;20440;-80
2024/02/29 09:57:39;;;;;;;2.03;1.60;;;18.50;56.10;;;;;;5095134;28;20527;-81
2024/02/29 10:00:10;;;;;;;1.87;1.50;;;18.50;56.10;;;;;;5095054;28;20444;-81
2024/02/29 10:02:38;;;;;;;1.90;1.57;;;18.50;56.10;;;;;;5095351;28;20519;-81
2024/02/29 10:05:10;;;;;;;2.10;1.40;;;18.60;56.10;;;;;;5094884;28;20448;-91
2024/02/29 10:07:42;;;;;;;1.70;1.20;;;18.60;56.10;;;;;;5094966;28;20431;-82
2024/02/29 10:10:12;;;;;;;2.03;1.37;;;18.60;56.20;;;;;;5094954;28;20427;-81
2024/02/29 10:12:40;;;;;;;2.27;1.53;;;18.50;56.10;;;;;;5094920;28;20439;-85
2024/02/29 10:15:10;;;;;;;2.47;1.80;;;18.50;56.20;;;;;;5095185;28;20519;-88
2024/02/29 10:17:37;;;;;;;2.03;1.23;;;18.50;56.20;;;;;;5094833;28;20843;-81
2024/02/29 10:20:08;;;;;;;2.40;1.37;;;18.50;56.80;;;;;;5094615;28;20435;-81
2024/02/29 10:22:35;;;;;;;1.90;1.20;;;18.50;56.30;;;;;;5094674;28;20435;-90
2024/02/29 10:25:02;;;;;;;2.10;1.60;;;18.50;56.30;;;;;;5094569;28;20494;-81
2024/02/29 10:27:30;;;;;;;1.90;1.27;;;18.50;56.30;;;;;;5094868;28;20459;-81
2024/02/29 10:29:58;;;;;;;1.90;1.50;;;18.50;56.30;;;;;;5094251;28;20942;-81
2024/02/29 10:32:25;;;;;;;2.20;1.50;;;18.60;56.40;;;;;;5094681;28;20435;-81
2024/02/29 10:34:52;;;;;;;1.80;1.20;;;18.50;56.90;;;;;;5094321;28;20436;-80
2024/02/29 10:37:20;;;;;;;3.17;1.70;;;18.50;56.30;;;;;;5094279;28;20516;-80
2024/02/29 10:39:47;;;;;;;2.00;1.33;;;18.50;56.30;;;;;;5094507;28;20859;-83
2024/02/29 10:42:15;;;;;;;2.20;1.60;;;18.60;56.40;;;;;;5094408;28;20518;-89
2024/02/29 10:44:46;;;;;;;2.10;1.40;;;18.50;56.40;;;;;;5100150;28;20486;-80
2024/02/29 10:47:15;;;;;;;2.20;1.63;;;18.60;56.50;;;;;;5098366;28;20447;-81
2024/02/29 10:49:46;;;;;;;2.37;1.63;;;18.60;56.60;;;;;;5094194;28;20535;-89
2024/02/29 10:52:26;;;;;;;5.33;1.50;;;18.60;56.50;;;;;;5094189;28;20436;-88
2024/02/29 10:54:56;;;;;;;1.70;1.30;;;18.60;56.40;;;;;;5093985;28;20454;-81
2024/02/29 10:57:28;;;;;;;2.10;1.60;;;18.60;56.50;;;;;;5094105;28;20572;-80
2024/02/29 11:00:02;;;;;;;1.70;1.17;;;18.60;56.50;;;;;;5094063;28;20431;-81
2024/02/29 11:02:29;;;;;;;2.00;1.50;;;18.60;56.50;;;;;;5093974;28;20493;-81
2024/02/29 11:04:57;;;;;;;1.90;1.30;;;18.60;56.60;;;;;;5094354;28;20998;-81
2024/02/29 11:07:26;;;;;;;1.83;1.27;;;18.50;56.50;;;;;;5094056;28;20869;-81
2024/02/29 11:09:53;;;;;;;2.00;1.37;;;18.50;56.50;;;;;;5093959;28;20442;-81
2024/02/29 11:12:21;;;;;;;1.80;1.30;;;18.50;56.50;;;;;;5093313;28;20463;-83
2024/02/29 11:14:50;;;;;;;2.20;1.50;;;18.50;56.50;;;;;;5093659;28;20550;-81
2024/02/29 11:17:18;;;;;;;1.80;1.30;;;18.50;56.50;;;;;;5093591;28;20915;-91
2024/02/29 11:19:45;;;;;;;1.77;1.30;;;18.50;56.50;;;;;;5093484;28;20497;-81
2024/02/29 11:22:13;;;;;;;1.80;1.40;;;18.50;56.60;;;;;;5093604;28;20431;-80
2024/02/29 11:24:44;;;;;;;2.27;1.40;;;18.40;56.50;;;;;;5093426;28;20844;-83
2024/02/29 11:27:11;;;;;;;1.80;1.40;;;18.40;57.10;;;;;;5093676;28;21015;-81
2024/02/29 11:29:39;;;;;;;1.77;1.47;;;18.40;56.60;;;;;;5093389;28;20531;-81
2024/02/29 11:32:06;;;;;;;1.60;1.07;;;18.40;56.70;;;;;;5093413;28;20492;-81
2024/02/29 11:34:33;;;;;;;1.80;1.23;;;18.30;56.60;;;;;;5093266;28;20448;-80
2024/02/29 11:37:04;;;;;;;1.93;1.20;;;18.30;56.70;;;;;;5093282;28;20431;-80
2024/02/29 11:39:31;;;;;;;2.00;1.60;;;18.30;56.70;;;;;;5093331;28;20510;-79
2024/02/29 11:42:04;;;;;;;1.87;1.43;;;18.30;56.80;;;;;;5093327;28;20450;-80
2024/02/29 11:44:31;;;;;;;2.50;1.63;;;18.30;56.80;;;;;;5093189;28;20646;-81
2024/02/29 11:46:58;;;;;;;2.00;1.30;;;18.20;56.70;;;;;;5093287;28;20446;-81
2024/02/29 11:49:26;;;;;;;1.73;1.40;;;18.30;56.80;;;;;;5093181;28;20431;-81
2024/02/29 11:51:53;;;;;;;2.17;1.50;;;18.20;56.80;;;;;;5093645;28;20443;-81
2024/02/29 11:54:20;;;;;;;1.80;1.27;;;18.20;56.80;;;;;;5092875;28;20923;-82
2024/02/29 11:56:47;;;;;;;1.90;1.50;;;18.20;56.80;;;;;;5093209;28;20443;-81
2024/02/29 11:59:15;;;;;;;1.70;1.30;;;18.20;56.90;;;;;;5093256;28;20459;-81
2024/02/29 12:01:43;;;;;;;1.60;1.20;;;18.20;56.90;;;;;;5093113;28;20867;-81
2024/02/29 12:04:13;;;;;;;1.70;1.20;;;18.20;56.90;;;;;;5093234;28;20985;-81
2024/02/29 12:06:40;;;;;;;1.80;1.50;;;18.20;56.90;;;;;;5093355;28;20478;-88
2024/02/29 12:09:11;;;;;;;1.80;1.17;;;18.10;56.90;;;;;;5092961;28;20527;-81
2024/02/29 12:11:38;;;;;;;2.33;1.90;;;18.10;56.90;;;;;;5093281;28;20444;-91
2024/02/29 12:14:06;;;;;;;1.90;1.27;;;18.10;56.90;;;;;;5093144;28;20439;-81
2024/02/29 12:16:35;;;;;;;2.00;1.50;;;18.10;56.90;;;;;;5092876;28;20482;-81
2024/02/29 12:19:03;;;;;;;1.73;1.40;;;18.10;57.00;;;;;;5092902;28;20441;-82
2024/02/29 12:21:30;;;;;;;1.73;1.33;;;18.10;56.90;;;;;;5093037;28;20439;-83
2024/02/29 12:23:57;;;;;;;1.77;1.30;;;18.10;56.90;;;;;;5093012;28;20836;-81
2024/02/29 12:26:24;;;;;;;2.20;1.10;;;18.10;57.00;;;;;;5096384;28;20442;-82
2024/02/29 12:28:51;;;;;;;1.87;1.33;;;18.00;56.90;;;;;;5095390;28;20858;-87
2024/02/29 12:31:19;;;;;;;2.10;1.50;;;18.00;56.90;;;;;;5096710;28;20489;-89
2024/02/29 12:33:48;;;;;;;1.93;1.40;;;18.00;56.90;;;;;;5096895;28;20518;-81
2024/02/29 12:36:17;;;;;;;1.60;1.23;;;18.00;56.90;;;;;;5096856;28;20471;-81
2024/02/29 12:38:44;;;;;;;1.60;1.27;;;18.00;57.00;;;;;;5096583;28;20436;-81
2024/02/29 12:41:13;;;;;;;2.10;1.50;;;18.00;57.50;;;;;;5096810;28;20526;-81
2024/02/29 12:43:46;;;;;;;1.70;1.30;;;18.00;57.00;;;;;;5096456;28;20431;-81
2024/02/29 12:46:14;;;;;;;1.87;1.40;;;18.00;57.00;;;;;;5096549;28;20434;-82
2024/02/29 12:48:41;;;;;;;2.50;1.20;;;18.00;57.00;;;;;;5096375;28;20493;-81